sensor_id;sensor_type;location;lat;lon;timestamp;P1;durP1;ratioP1;P2;durP2;ratioP2
10090;SDS011;5084;51.386;6.778;2023-02-08T00:01:51;7.27;;;5.53;;
10090;SDS011;5084;51.386;6.778;2023-02-08T00:04:18;5.87;;;4.97;;
10090;SDS011;5084;51.386;6.778;2023-02-08T00:06:44;5.67;;;5.13;;
10090;SDS011;5084;51.386;6.778;2023-02-08T00:09:10;5.97;;;5.10;;
10090;SDS011;5084;51.386;6.778;2023-02-08T00:11:36;7.23;;;5.37;;
10090;SDS011;5084;51.386;6.778;2023-02-08T00:14:02;6.37;;;5.07;;
10090;SDS011;5084;51.386;6.778;2023-02-08T00:16:28;5.40;;;4.90;;
10090;SDS011;5084;51.386;6.778;2023-02-08T00:18:54;5.63;;;4.73;;
10090;SDS011;5084;51.386;6.778;2023-02-08T00:21:20;6.27;;;4.97;;
10090;SDS011;5084;51.386;6.778;2023-02-08T00:23:47;5.30;;;4.50;;
10090;SDS011;5084;51.386;6.778;2023-02-08T00:26:13;5.97;;;4.97;;
10090;SDS011;5084;51.386;6.778;2023-02-08T00:28:40;6.13;;;4.83;;
10090;SDS011;5084;51.386;6.778;2023-02-08T00:31:06;5.40;;;4.77;;
10090;SDS011;5084;51.386;6.778;2023-02-08T00:33:32;6.43;;;5.33;;
10090;SDS011;5084;51.386;6.778;2023-02-08T00:36:02;5.67;;;4.90;;
10090;SDS011;5084;51.386;6.778;2023-02-08T00:38:29;5.97;;;4.77;;
10090;SDS011;5084;51.386;6.778;2023-02-08T00:40:55;7.90;;;5.33;;
10090;SDS011;5084;51.386;6.778;2023-02-08T00:43:21;5.90;;;4.83;;
10090;SDS011;5084;51.386;6.778;2023-02-08T00:45:52;4.83;;;4.33;;
10090;SDS011;5084;51.386;6.778;2023-02-08T00:48:18;6.10;;;5.03;;
10090;SDS011;5084;51.386;6.778;2023-02-08T00:50:44;6.47;;;5.47;;
10090;SDS011;5084;51.386;6.778;2023-02-08T00:53:10;6.17;;;4.80;;
10090;SDS011;5084;51.386;6.778;2023-02-08T00:55:36;5.50;;;4.87;;
10090;SDS011;5084;51.386;6.778;2023-02-08T00:58:02;5.47;;;4.93;;
10090;SDS011;5084;51.386;6.778;2023-02-08T01:00:28;8.00;;;5.17;;
10090;SDS011;5084;51.386;6.778;2023-02-08T01:02:54;5.70;;;4.77;;
10090;SDS011;5084;51.386;6.778;2023-02-08T01:05:21;5.60;;;5.00;;
10090;SDS011;5084;51.386;6.778;2023-02-08T01:07:47;5.63;;;4.53;;
10090;SDS011;5084;51.386;6.778;2023-02-08T01:10:13;6.40;;;5.33;;
10090;SDS011;5084;51.386;6.778;2023-02-08T01:12:39;5.80;;;5.13;;
10090;SDS011;5084;51.386;6.778;2023-02-08T01:15:05;6.03;;;4.80;;
10090;SDS011;5084;51.386;6.778;2023-02-08T01:17:31;6.10;;;4.80;;
10090;SDS011;5084;51.386;6.778;2023-02-08T01:19:57;6.27;;;4.87;;
10090;SDS011;5084;51.386;6.778;2023-02-08T01:22:23;5.47;;;4.93;;
10090;SDS011;5084;51.386;6.778;2023-02-08T01:24:49;5.67;;;5.00;;
10090;SDS011;5084;51.386;6.778;2023-02-08T01:27:15;5.80;;;5.03;;
10090;SDS011;5084;51.386;6.778;2023-02-08T01:29:41;4.97;;;4.27;;
10090;SDS011;5084;51.386;6.778;2023-02-08T01:32:07;6.13;;;5.13;;
10090;SDS011;5084;51.386;6.778;2023-02-08T01:34:33;6.13;;;4.97;;
10090;SDS011;5084;51.386;6.778;2023-02-08T01:36:59;5.47;;;4.87;;
10090;SDS011;5084;51.386;6.778;2023-02-08T01:39:25;6.07;;;5.20;;
10090;SDS011;5084;51.386;6.778;2023-02-08T01:41:51;5.43;;;4.93;;
10090;SDS011;5084;51.386;6.778;2023-02-08T01:46:45;6.33;;;5.10;;
10090;SDS011;5084;51.386;6.778;2023-02-08T01:51:55;5.77;;;5.07;;
10090;SDS011;5084;51.386;6.778;2023-02-08T01:54:23;5.73;;;4.47;;
10090;SDS011;5084;51.386;6.778;2023-02-08T01:56:50;6.67;;;5.10;;
10090;SDS011;5084;51.386;6.778;2023-02-08T01:59:18;5.43;;;4.93;;
10090;SDS011;5084;51.386;6.778;2023-02-08T02:01:45;5.63;;;4.43;;
10090;SDS011;5084;51.386;6.778;2023-02-08T02:04:12;5.07;;;4.07;;
10090;SDS011;5084;51.386;6.778;2023-02-08T02:06:40;5.50;;;4.73;;
10090;SDS011;5084;51.386;6.778;2023-02-08T02:09:16;5.43;;;4.80;;
10090;SDS011;5084;51.386;6.778;2023-02-08T02:11:44;5.47;;;4.80;;
10090;SDS011;5084;51.386;6.778;2023-02-08T02:14:10;5.60;;;4.80;;
10090;SDS011;5084;51.386;6.778;2023-02-08T02:16:36;6.53;;;4.87;;
10090;SDS011;5084;51.386;6.778;2023-02-08T02:19:03;6.33;;;4.97;;
10090;SDS011;5084;51.386;6.778;2023-02-08T02:29:10;5.97;;;4.97;;
10090;SDS011;5084;51.386;6.778;2023-02-08T02:44:30;5.77;;;4.53;;
10090;SDS011;5084;51.386;6.778;2023-02-08T02:47:15;4.80;;;4.30;;
10090;SDS011;5084;51.386;6.778;2023-02-08T02:49:48;6.37;;;4.80;;
10090;SDS011;5084;51.386;6.778;2023-02-08T02:55:07;5.33;;;4.70;;
10090;SDS011;5084;51.386;6.778;2023-02-08T02:57:36;6.03;;;5.43;;
10090;SDS011;5084;51.386;6.778;2023-02-08T03:00:07;5.80;;;4.37;;
10090;SDS011;5084;51.386;6.778;2023-02-08T03:02:34;5.20;;;4.53;;
10090;SDS011;5084;51.386;6.778;2023-02-08T03:05:00;5.40;;;4.63;;
10090;SDS011;5084;51.386;6.778;2023-02-08T03:07:30;5.77;;;4.80;;
10090;SDS011;5084;51.386;6.778;2023-02-08T03:15:43;6.00;;;4.53;;
10090;SDS011;5084;51.386;6.778;2023-02-08T03:18:00;5.83;;;4.87;;
10090;SDS011;5084;51.386;6.778;2023-02-08T03:23:14;6.60;;;5.33;;
10090;SDS011;5084;51.386;6.778;2023-02-08T03:26:01;5.83;;;4.90;;
10090;SDS011;5084;51.386;6.778;2023-02-08T03:28:38;7.03;;;5.07;;
10090;SDS011;5084;51.386;6.778;2023-02-08T03:31:19;6.40;;;5.53;;
10090;SDS011;5084;51.386;6.778;2023-02-08T03:38:51;5.73;;;4.83;;
10090;SDS011;5084;51.386;6.778;2023-02-08T03:41:19;4.73;;;4.13;;
10090;SDS011;5084;51.386;6.778;2023-02-08T03:43:49;4.97;;;4.40;;
10090;SDS011;5084;51.386;6.778;2023-02-08T03:46:21;5.93;;;4.80;;
10090;SDS011;5084;51.386;6.778;2023-02-08T03:48:57;5.80;;;4.53;;
10090;SDS011;5084;51.386;6.778;2023-02-08T03:51:24;6.57;;;4.67;;
10090;SDS011;5084;51.386;6.778;2023-02-08T03:53:51;7.77;;;5.07;;
10090;SDS011;5084;51.386;6.778;2023-02-08T03:56:53;5.40;;;4.50;;
10090;SDS011;5084;51.386;6.778;2023-02-08T03:59:21;5.23;;;4.27;;
10090;SDS011;5084;51.386;6.778;2023-02-08T04:01:48;5.83;;;4.60;;
10090;SDS011;5084;51.386;6.778;2023-02-08T04:04:16;5.70;;;4.60;;
10090;SDS011;5084;51.386;6.778;2023-02-08T04:06:43;4.83;;;4.33;;
10090;SDS011;5084;51.386;6.778;2023-02-08T04:09:09;5.83;;;4.97;;
10090;SDS011;5084;51.386;6.778;2023-02-08T04:11:35;6.17;;;4.87;;
10090;SDS011;5084;51.386;6.778;2023-02-08T04:14:02;5.40;;;4.90;;
10090;SDS011;5084;51.386;6.778;2023-02-08T04:16:28;6.60;;;5.37;;
10090;SDS011;5084;51.386;6.778;2023-02-08T04:18:54;6.23;;;5.00;;
10090;SDS011;5084;51.386;6.778;2023-02-08T04:21:20;6.37;;;4.63;;
10090;SDS011;5084;51.386;6.778;2023-02-08T04:23:46;8.43;;;5.80;;
10090;SDS011;5084;51.386;6.778;2023-02-08T04:26:12;5.80;;;5.20;;
10090;SDS011;5084;51.386;6.778;2023-02-08T04:28:38;5.83;;;4.67;;
10090;SDS011;5084;51.386;6.778;2023-02-08T04:31:04;5.07;;;4.53;;
10090;SDS011;5084;51.386;6.778;2023-02-08T04:33:30;5.73;;;5.13;;
10090;SDS011;5084;51.386;6.778;2023-02-08T04:35:56;5.53;;;5.03;;
10090;SDS011;5084;51.386;6.778;2023-02-08T04:38:22;6.17;;;4.53;;
10090;SDS011;5084;51.386;6.778;2023-02-08T04:40:48;6.23;;;4.90;;
10090;SDS011;5084;51.386;6.778;2023-02-08T04:43:14;5.67;;;4.67;;
10090;SDS011;5084;51.386;6.778;2023-02-08T04:45:40;6.10;;;5.10;;
10090;SDS011;5084;51.386;6.778;2023-02-08T04:48:06;6.60;;;5.00;;
10090;SDS011;5084;51.386;6.778;2023-02-08T04:50:32;6.80;;;5.13;;
10090;SDS011;5084;51.386;6.778;2023-02-08T04:52:58;4.73;;;4.23;;
10090;SDS011;5084;51.386;6.778;2023-02-08T04:55:24;6.27;;;5.00;;
10090;SDS011;5084;51.386;6.778;2023-02-08T04:57:50;5.70;;;4.80;;
10090;SDS011;5084;51.386;6.778;2023-02-08T05:00:17;6.13;;;5.20;;
10090;SDS011;5084;51.386;6.778;2023-02-08T05:02:43;7.77;;;5.50;;
10090;SDS011;5084;51.386;6.778;2023-02-08T05:05:09;5.97;;;5.23;;
10090;SDS011;5084;51.386;6.778;2023-02-08T05:07:35;6.77;;;4.97;;
10090;SDS011;5084;51.386;6.778;2023-02-08T05:10:02;5.97;;;4.57;;
10090;SDS011;5084;51.386;6.778;2023-02-08T05:12:28;5.00;;;4.43;;
10090;SDS011;5084;51.386;6.778;2023-02-08T05:14:55;6.03;;;5.23;;
10090;SDS011;5084;51.386;6.778;2023-02-08T05:17:21;6.63;;;4.67;;
10090;SDS011;5084;51.386;6.778;2023-02-08T05:19:47;5.27;;;4.33;;
10090;SDS011;5084;51.386;6.778;2023-02-08T05:22:13;9.27;;;4.60;;
10090;SDS011;5084;51.386;6.778;2023-02-08T05:24:39;6.03;;;4.80;;
10090;SDS011;5084;51.386;6.778;2023-02-08T05:27:05;7.03;;;5.17;;
10090;SDS011;5084;51.386;6.778;2023-02-08T05:29:31;6.50;;;5.50;;
10090;SDS011;5084;51.386;6.778;2023-02-08T05:31:57;5.77;;;4.53;;
10090;SDS011;5084;51.386;6.778;2023-02-08T05:34:23;7.60;;;4.97;;
10090;SDS011;5084;51.386;6.778;2023-02-08T05:36:49;5.47;;;4.00;;
10090;SDS011;5084;51.386;6.778;2023-02-08T05:39:15;5.47;;;4.73;;
10090;SDS011;5084;51.386;6.778;2023-02-08T05:41:41;4.70;;;4.10;;
10090;SDS011;5084;51.386;6.778;2023-02-08T05:44:07;6.03;;;4.60;;
10090;SDS011;5084;51.386;6.778;2023-02-08T05:46:33;5.63;;;4.93;;
10090;SDS011;5084;51.386;6.778;2023-02-08T05:48:59;5.30;;;4.30;;
10090;SDS011;5084;51.386;6.778;2023-02-08T05:51:25;5.93;;;4.70;;
10090;SDS011;5084;51.386;6.778;2023-02-08T05:53:51;5.93;;;4.77;;
10090;SDS011;5084;51.386;6.778;2023-02-08T05:56:18;7.10;;;4.73;;
10090;SDS011;5084;51.386;6.778;2023-02-08T05:58:44;6.23;;;4.97;;
10090;SDS011;5084;51.386;6.778;2023-02-08T06:01:10;4.70;;;3.97;;
10090;SDS011;5084;51.386;6.778;2023-02-08T06:03:37;8.57;;;4.90;;
10090;SDS011;5084;51.386;6.778;2023-02-08T06:06:03;5.67;;;4.47;;
10090;SDS011;5084;51.386;6.778;2023-02-08T06:08:29;7.43;;;4.50;;
10090;SDS011;5084;51.386;6.778;2023-02-08T06:10:55;6.80;;;5.13;;
10090;SDS011;5084;51.386;6.778;2023-02-08T06:13:21;6.07;;;4.93;;
10090;SDS011;5084;51.386;6.778;2023-02-08T06:15:47;5.80;;;4.63;;
10090;SDS011;5084;51.386;6.778;2023-02-08T06:18:13;5.00;;;4.23;;
10090;SDS011;5084;51.386;6.778;2023-02-08T06:20:39;6.53;;;5.07;;
10090;SDS011;5084;51.386;6.778;2023-02-08T06:23:05;7.63;;;5.63;;
10090;SDS011;5084;51.386;6.778;2023-02-08T06:25:31;6.90;;;5.40;;
10090;SDS011;5084;51.386;6.778;2023-02-08T06:27:58;7.03;;;5.27;;
10090;SDS011;5084;51.386;6.778;2023-02-08T06:30:24;6.53;;;5.03;;
10090;SDS011;5084;51.386;6.778;2023-02-08T06:32:50;5.77;;;4.30;;
10090;SDS011;5084;51.386;6.778;2023-02-08T06:35:16;6.40;;;5.33;;
10090;SDS011;5084;51.386;6.778;2023-02-08T06:37:42;5.77;;;4.77;;
10090;SDS011;5084;51.386;6.778;2023-02-08T06:40:08;6.77;;;5.40;;
10090;SDS011;5084;51.386;6.778;2023-02-08T06:42:34;6.87;;;4.90;;
10090;SDS011;5084;51.386;6.778;2023-02-08T06:45:00;6.00;;;5.00;;
10090;SDS011;5084;51.386;6.778;2023-02-08T06:47:27;5.03;;;3.90;;
10090;SDS011;5084;51.386;6.778;2023-02-08T06:49:53;6.00;;;4.97;;
10090;SDS011;5084;51.386;6.778;2023-02-08T06:52:20;6.23;;;4.83;;
10090;SDS011;5084;51.386;6.778;2023-02-08T06:54:46;6.47;;;5.20;;
10090;SDS011;5084;51.386;6.778;2023-02-08T06:57:12;8.37;;;5.57;;
10090;SDS011;5084;51.386;6.778;2023-02-08T06:59:39;17.80;;;5.23;;
10090;SDS011;5084;51.386;6.778;2023-02-08T07:02:05;14.87;;;5.57;;
10090;SDS011;5084;51.386;6.778;2023-02-08T07:04:35;7.37;;;5.43;;
10090;SDS011;5084;51.386;6.778;2023-02-08T07:07:01;11.33;;;5.33;;
10090;SDS011;5084;51.386;6.778;2023-02-08T07:09:27;7.13;;;5.77;;
10090;SDS011;5084;51.386;6.778;2023-02-08T07:11:53;8.97;;;4.43;;
10090;SDS011;5084;51.386;6.778;2023-02-08T07:14:19;14.97;;;5.73;;
10090;SDS011;5084;51.386;6.778;2023-02-08T07:16:45;6.53;;;5.07;;
10090;SDS011;5084;51.386;6.778;2023-02-08T07:19:11;6.87;;;5.07;;
10090;SDS011;5084;51.386;6.778;2023-02-08T07:21:37;5.77;;;4.50;;
10090;SDS011;5084;51.386;6.778;2023-02-08T07:24:10;9.10;;;5.50;;
10090;SDS011;5084;51.386;6.778;2023-02-08T07:26:36;7.63;;;5.03;;
10090;SDS011;5084;51.386;6.778;2023-02-08T07:29:03;10.00;;;5.23;;
10090;SDS011;5084;51.386;6.778;2023-02-08T07:31:29;12.53;;;5.50;;
10090;SDS011;5084;51.386;6.778;2023-02-08T07:33:55;6.70;;;5.10;;
10090;SDS011;5084;51.386;6.778;2023-02-08T07:36:21;6.47;;;4.87;;
10090;SDS011;5084;51.386;6.778;2023-02-08T07:38:47;8.87;;;5.07;;
10090;SDS011;5084;51.386;6.778;2023-02-08T07:41:13;7.33;;;4.83;;
10090;SDS011;5084;51.386;6.778;2023-02-08T07:43:39;7.37;;;5.23;;
10090;SDS011;5084;51.386;6.778;2023-02-08T07:48:33;7.20;;;5.60;;
10090;SDS011;5084;51.386;6.778;2023-02-08T07:50:59;8.47;;;4.87;;
10090;SDS011;5084;51.386;6.778;2023-02-08T07:53:25;7.87;;;5.47;;
10090;SDS011;5084;51.386;6.778;2023-02-08T07:55:51;6.53;;;4.93;;
10090;SDS011;5084;51.386;6.778;2023-02-08T07:58:17;7.63;;;5.60;;
10090;SDS011;5084;51.386;6.778;2023-02-08T08:00:43;8.17;;;4.87;;
10090;SDS011;5084;51.386;6.778;2023-02-08T08:03:09;6.10;;;4.50;;
10090;SDS011;5084;51.386;6.778;2023-02-08T08:05:35;5.60;;;4.53;;
10090;SDS011;5084;51.386;6.778;2023-02-08T08:08:02;7.20;;;4.70;;
10090;SDS011;5084;51.386;6.778;2023-02-08T08:10:28;7.17;;;5.37;;
10090;SDS011;5084;51.386;6.778;2023-02-08T08:12:54;6.13;;;5.07;;
10090;SDS011;5084;51.386;6.778;2023-02-08T08:15:20;8.50;;;5.43;;
10090;SDS011;5084;51.386;6.778;2023-02-08T08:17:46;8.47;;;5.43;;
10090;SDS011;5084;51.386;6.778;2023-02-08T08:20:12;5.93;;;4.83;;
10090;SDS011;5084;51.386;6.778;2023-02-08T08:22:38;8.53;;;5.60;;
10090;SDS011;5084;51.386;6.778;2023-02-08T08:25:04;6.57;;;5.10;;
10090;SDS011;5084;51.386;6.778;2023-02-08T08:27:31;6.40;;;5.20;;
10090;SDS011;5084;51.386;6.778;2023-02-08T08:29:57;8.40;;;4.83;;
10090;SDS011;5084;51.386;6.778;2023-02-08T08:32:24;7.63;;;5.60;;
10090;SDS011;5084;51.386;6.778;2023-02-08T08:34:50;8.20;;;5.17;;
10090;SDS011;5084;51.386;6.778;2023-02-08T08:37:16;5.27;;;4.73;;
10090;SDS011;5084;51.386;6.778;2023-02-08T08:39:42;7.23;;;5.13;;
10090;SDS011;5084;51.386;6.778;2023-02-08T08:42:08;7.47;;;5.23;;
10090;SDS011;5084;51.386;6.778;2023-02-08T08:44:34;7.07;;;5.30;;
10090;SDS011;5084;51.386;6.778;2023-02-08T08:47:00;6.97;;;4.87;;
10090;SDS011;5084;51.386;6.778;2023-02-08T08:49:27;6.37;;;4.60;;
10090;SDS011;5084;51.386;6.778;2023-02-08T08:51:53;6.97;;;4.77;;
10090;SDS011;5084;51.386;6.778;2023-02-08T08:54:20;7.37;;;5.37;;
10090;SDS011;5084;51.386;6.778;2023-02-08T08:56:46;7.53;;;5.20;;
10090;SDS011;5084;51.386;6.778;2023-02-08T08:59:12;8.03;;;5.70;;
10090;SDS011;5084;51.386;6.778;2023-02-08T09:01:39;6.37;;;4.90;;
10090;SDS011;5084;51.386;6.778;2023-02-08T09:04:06;7.60;;;5.50;;
10090;SDS011;5084;51.386;6.778;2023-02-08T09:06:33;7.47;;;5.40;;
10090;SDS011;5084;51.386;6.778;2023-02-08T09:08:59;8.20;;;5.10;;
10090;SDS011;5084;51.386;6.778;2023-02-08T09:11:25;7.90;;;5.30;;
10090;SDS011;5084;51.386;6.778;2023-02-08T09:13:51;6.83;;;4.87;;
10090;SDS011;5084;51.386;6.778;2023-02-08T09:16:21;7.63;;;5.17;;
10090;SDS011;5084;51.386;6.778;2023-02-08T09:18:47;5.50;;;4.83;;
10090;SDS011;5084;51.386;6.778;2023-02-08T09:21:15;7.10;;;5.07;;
10090;SDS011;5084;51.386;6.778;2023-02-08T09:23:42;5.83;;;4.43;;
10090;SDS011;5084;51.386;6.778;2023-02-08T09:26:08;6.43;;;5.10;;
10090;SDS011;5084;51.386;6.778;2023-02-08T09:28:35;6.47;;;5.00;;
10090;SDS011;5084;51.386;6.778;2023-02-08T09:31:12;6.20;;;5.30;;
10090;SDS011;5084;51.386;6.778;2023-02-08T09:33:38;8.10;;;5.40;;
10090;SDS011;5084;51.386;6.778;2023-02-08T09:36:04;5.53;;;4.33;;
10090;SDS011;5084;51.386;6.778;2023-02-08T09:38:31;7.13;;;5.10;;
10090;SDS011;5084;51.386;6.778;2023-02-08T09:41:03;5.30;;;4.60;;
10090;SDS011;5084;51.386;6.778;2023-02-08T09:43:37;5.67;;;4.63;;
10090;SDS011;5084;51.386;6.778;2023-02-08T09:46:20;9.97;;;4.77;;
10090;SDS011;5084;51.386;6.778;2023-02-08T09:48:48;7.50;;;4.57;;
10090;SDS011;5084;51.386;6.778;2023-02-08T09:53:43;6.90;;;4.47;;
10090;SDS011;5084;51.386;6.778;2023-02-08T09:56:14;5.50;;;4.40;;
10090;SDS011;5084;51.386;6.778;2023-02-08T09:58:42;6.37;;;4.97;;
10090;SDS011;5084;51.386;6.778;2023-02-08T10:01:18;5.03;;;4.17;;
10090;SDS011;5084;51.386;6.778;2023-02-08T10:03:45;8.20;;;5.50;;
10090;SDS011;5084;51.386;6.778;2023-02-08T10:06:13;8.40;;;3.90;;
10090;SDS011;5084;51.386;6.778;2023-02-08T10:08:39;6.47;;;4.57;;
10090;SDS011;5084;51.386;6.778;2023-02-08T10:13:42;5.47;;;3.90;;
10090;SDS011;5084;51.386;6.778;2023-02-08T10:16:12;6.43;;;4.20;;
10090;SDS011;5084;51.386;6.778;2023-02-08T10:18:51;5.10;;;4.47;;
10090;SDS011;5084;51.386;6.778;2023-02-08T10:23:54;8.30;;;5.03;;
10090;SDS011;5084;51.386;6.778;2023-02-08T10:26:42;5.93;;;4.23;;
10090;SDS011;5084;51.386;6.778;2023-02-08T10:36:58;5.10;;;3.90;;
10090;SDS011;5084;51.386;6.778;2023-02-08T10:39:27;5.80;;;4.20;;
10090;SDS011;5084;51.386;6.778;2023-02-08T10:41:54;4.93;;;3.87;;
10090;SDS011;5084;51.386;6.778;2023-02-08T10:44:26;5.57;;;4.70;;
10090;SDS011;5084;51.386;6.778;2023-02-08T10:49:36;5.03;;;4.00;;
10090;SDS011;5084;51.386;6.778;2023-02-08T10:52:04;4.37;;;3.90;;
10090;SDS011;5084;51.386;6.778;2023-02-08T10:54:32;5.43;;;4.40;;
10090;SDS011;5084;51.386;6.778;2023-02-08T10:56:59;5.43;;;4.00;;
10090;SDS011;5084;51.386;6.778;2023-02-08T10:59:32;5.20;;;3.77;;
10090;SDS011;5084;51.386;6.778;2023-02-08T11:01:58;5.40;;;4.30;;
10090;SDS011;5084;51.386;6.778;2023-02-08T11:04:24;5.00;;;4.17;;
10090;SDS011;5084;51.386;6.778;2023-02-08T11:06:50;5.00;;;4.23;;
10090;SDS011;5084;51.386;6.778;2023-02-08T11:09:28;5.23;;;4.23;;
10090;SDS011;5084;51.386;6.778;2023-02-08T11:11:55;4.87;;;3.47;;
10090;SDS011;5084;51.386;6.778;2023-02-08T11:14:24;5.43;;;4.27;;
10090;SDS011;5084;51.386;6.778;2023-02-08T11:16:56;4.00;;;3.20;;
10090;SDS011;5084;51.386;6.778;2023-02-08T11:19:32;4.50;;;3.83;;
10090;SDS011;5084;51.386;6.778;2023-02-08T11:21:58;4.03;;;3.60;;
10090;SDS011;5084;51.386;6.778;2023-02-08T11:24:36;4.23;;;3.23;;
10090;SDS011;5084;51.386;6.778;2023-02-08T11:27:47;3.97;;;3.53;;
10090;SDS011;5084;51.386;6.778;2023-02-08T11:32:39;4.53;;;3.60;;
10090;SDS011;5084;51.386;6.778;2023-02-08T11:35:22;4.17;;;3.47;;
10090;SDS011;5084;51.386;6.778;2023-02-08T11:37:50;3.47;;;3.00;;
10090;SDS011;5084;51.386;6.778;2023-02-08T11:40:20;6.87;;;3.43;;
10090;SDS011;5084;51.386;6.778;2023-02-08T11:42:46;4.67;;;3.47;;
10090;SDS011;5084;51.386;6.778;2023-02-08T11:45:20;3.43;;;3.13;;
10090;SDS011;5084;51.386;6.778;2023-02-08T11:47:46;4.30;;;3.17;;
10090;SDS011;5084;51.386;6.778;2023-02-08T11:50:23;4.23;;;3.17;;
10090;SDS011;5084;51.386;6.778;2023-02-08T11:52:52;4.40;;;3.07;;
10090;SDS011;5084;51.386;6.778;2023-02-08T11:57:52;3.50;;;3.20;;
10090;SDS011;5084;51.386;6.778;2023-02-08T12:00:20;5.60;;;3.57;;
10090;SDS011;5084;51.386;6.778;2023-02-08T12:02:48;4.93;;;3.43;;
10090;SDS011;5084;51.386;6.778;2023-02-08T12:05:19;3.47;;;3.07;;
10090;SDS011;5084;51.386;6.778;2023-02-08T12:08:06;3.80;;;3.40;;
10090;SDS011;5084;51.386;6.778;2023-02-08T12:13:14;4.13;;;3.63;;
10090;SDS011;5084;51.386;6.778;2023-02-08T12:18:38;6.03;;;3.93;;
10090;SDS011;5084;51.386;6.778;2023-02-08T12:21:15;5.60;;;3.90;;
10090;SDS011;5084;51.386;6.778;2023-02-08T12:23:46;5.27;;;4.13;;
10090;SDS011;5084;51.386;6.778;2023-02-08T12:27:00;6.60;;;4.53;;
10090;SDS011;5084;51.386;6.778;2023-02-08T12:37:31;4.83;;;3.97;;
10090;SDS011;5084;51.386;6.778;2023-02-08T12:43:20;6.00;;;3.77;;
10090;SDS011;5084;51.386;6.778;2023-02-08T12:51:12;5.50;;;4.17;;
10090;SDS011;5084;51.386;6.778;2023-02-08T12:53:40;3.97;;;3.07;;
10090;SDS011;5084;51.386;6.778;2023-02-08T12:56:25;3.97;;;3.47;;
10090;SDS011;5084;51.386;6.778;2023-02-08T12:58:55;4.27;;;3.00;;
10090;SDS011;5084;51.386;6.778;2023-02-08T13:01:24;4.30;;;3.40;;
10090;SDS011;5084;51.386;6.778;2023-02-08T13:04:38;5.67;;;3.67;;
10090;SDS011;5084;51.386;6.778;2023-02-08T13:06:41;3.67;;;3.20;;
10090;SDS011;5084;51.386;6.778;2023-02-08T13:16:52;5.63;;;3.20;;
10090;SDS011;5084;51.386;6.778;2023-02-08T13:19:28;3.77;;;2.30;;
10090;SDS011;5084;51.386;6.778;2023-02-08T13:21:56;4.50;;;3.03;;
10090;SDS011;5084;51.386;6.778;2023-02-08T13:24:37;3.67;;;2.93;;
10090;SDS011;5084;51.386;6.778;2023-02-08T13:27:04;4.33;;;3.07;;
10090;SDS011;5084;51.386;6.778;2023-02-08T13:29:32;3.20;;;2.90;;
10090;SDS011;5084;51.386;6.778;2023-02-08T13:32:00;3.00;;;2.70;;
10090;SDS011;5084;51.386;6.778;2023-02-08T13:37:01;3.30;;;2.57;;
10090;SDS011;5084;51.386;6.778;2023-02-08T13:39:36;4.90;;;2.70;;
10090;SDS011;5084;51.386;6.778;2023-02-08T13:42:05;4.10;;;2.57;;
10090;SDS011;5084;51.386;6.778;2023-02-08T13:44:36;2.53;;;2.30;;
10090;SDS011;5084;51.386;6.778;2023-02-08T13:47:04;5.13;;;2.83;;
10090;SDS011;5084;51.386;6.778;2023-02-08T13:49:50;7.07;;;2.80;;
10090;SDS011;5084;51.386;6.778;2023-02-08T13:57:50;2.10;;;1.90;;
10090;SDS011;5084;51.386;6.778;2023-02-08T14:03:01;2.63;;;2.40;;
10090;SDS011;5084;51.386;6.778;2023-02-08T14:05:45;3.43;;;2.30;;
10090;SDS011;5084;51.386;6.778;2023-02-08T14:13:28;2.80;;;2.60;;
10090;SDS011;5084;51.386;6.778;2023-02-08T14:18:46;3.67;;;2.53;;
10090;SDS011;5084;51.386;6.778;2023-02-08T14:21:22;3.13;;;2.77;;
10090;SDS011;5084;51.386;6.778;2023-02-08T14:23:57;2.90;;;2.43;;
10090;SDS011;5084;51.386;6.778;2023-02-08T14:26:23;2.97;;;2.30;;
10090;SDS011;5084;51.386;6.778;2023-02-08T14:28:52;2.80;;;2.50;;
10090;SDS011;5084;51.386;6.778;2023-02-08T14:31:19;2.33;;;2.00;;
10090;SDS011;5084;51.386;6.778;2023-02-08T14:33:51;3.00;;;2.43;;
10090;SDS011;5084;51.386;6.778;2023-02-08T14:36:31;2.93;;;2.20;;
10090;SDS011;5084;51.386;6.778;2023-02-08T14:41:47;5.30;;;2.20;;
10090;SDS011;5084;51.386;6.778;2023-02-08T14:46:58;3.23;;;2.40;;
10090;SDS011;5084;51.386;6.778;2023-02-08T14:49:24;3.03;;;2.37;;
10090;SDS011;5084;51.386;6.778;2023-02-08T14:51:58;2.50;;;2.30;;
10090;SDS011;5084;51.386;6.778;2023-02-08T14:54:35;4.47;;;2.40;;
10090;SDS011;5084;51.386;6.778;2023-02-08T14:57:03;4.07;;;2.43;;
10090;SDS011;5084;51.386;6.778;2023-02-08T14:59:32;4.20;;;2.80;;
10090;SDS011;5084;51.386;6.778;2023-02-08T15:02:00;2.73;;;2.13;;
10090;SDS011;5084;51.386;6.778;2023-02-08T15:04:27;2.17;;;1.97;;
10090;SDS011;5084;51.386;6.778;2023-02-08T15:09:23;2.67;;;2.43;;
10090;SDS011;5084;51.386;6.778;2023-02-08T15:12:00;4.80;;;2.20;;
10090;SDS011;5084;51.386;6.778;2023-02-08T15:14:27;2.27;;;2.07;;
10090;SDS011;5084;51.386;6.778;2023-02-08T15:16:53;2.60;;;2.17;;
10090;SDS011;5084;51.386;6.778;2023-02-08T15:19:22;2.20;;;2.00;;
10090;SDS011;5084;51.386;6.778;2023-02-08T15:21:49;2.77;;;2.30;;
10090;SDS011;5084;51.386;6.778;2023-02-08T15:24:16;5.33;;;2.33;;
10090;SDS011;5084;51.386;6.778;2023-02-08T15:26:43;2.30;;;2.03;;
10090;SDS011;5084;51.386;6.778;2023-02-08T15:29:20;2.97;;;2.63;;
10090;SDS011;5084;51.386;6.778;2023-02-08T15:31:49;2.20;;;2.00;;
10090;SDS011;5084;51.386;6.778;2023-02-08T15:34:17;2.40;;;2.13;;
10090;SDS011;5084;51.386;6.778;2023-02-08T15:36:45;2.10;;;1.90;;
10090;SDS011;5084;51.386;6.778;2023-02-08T15:39:56;2.63;;;2.30;;
10090;SDS011;5084;51.386;6.778;2023-02-08T15:42:05;2.80;;;2.50;;
10090;SDS011;5084;51.386;6.778;2023-02-08T15:44:42;3.33;;;2.20;;
10090;SDS011;5084;51.386;6.778;2023-02-08T15:47:17;4.80;;;2.43;;
10090;SDS011;5084;51.386;6.778;2023-02-08T15:49:45;3.30;;;2.47;;
10090;SDS011;5084;51.386;6.778;2023-02-08T15:52:15;2.50;;;2.30;;
10090;SDS011;5084;51.386;6.778;2023-02-08T15:54:43;3.93;;;2.23;;
10090;SDS011;5084;51.386;6.778;2023-02-08T15:59:54;3.03;;;2.30;;
10090;SDS011;5084;51.386;6.778;2023-02-08T16:02:30;5.60;;;2.40;;
10090;SDS011;5084;51.386;6.778;2023-02-08T16:04:57;4.40;;;2.60;;
10090;SDS011;5084;51.386;6.778;2023-02-08T16:07:37;6.33;;;2.87;;
10090;SDS011;5084;51.386;6.778;2023-02-08T16:10:05;2.97;;;2.50;;
10090;SDS011;5084;51.386;6.778;2023-02-08T16:12:32;2.67;;;2.27;;
10090;SDS011;5084;51.386;6.778;2023-02-08T16:14:58;2.23;;;2.03;;
10090;SDS011;5084;51.386;6.778;2023-02-08T16:19:59;2.80;;;2.53;;
10090;SDS011;5084;51.386;6.778;2023-02-08T16:22:32;2.47;;;2.10;;
10090;SDS011;5084;51.386;6.778;2023-02-08T16:27:46;2.80;;;2.50;;
10090;SDS011;5084;51.386;6.778;2023-02-08T16:30:17;2.87;;;2.33;;
10090;SDS011;5084;51.386;6.778;2023-02-08T16:32:43;2.77;;;2.33;;
10090;SDS011;5084;51.386;6.778;2023-02-08T16:35:17;2.90;;;2.50;;
10090;SDS011;5084;51.386;6.778;2023-02-08T16:37:45;4.83;;;2.43;;
10090;SDS011;5084;51.386;6.778;2023-02-08T16:40:39;2.40;;;2.20;;
10090;SDS011;5084;51.386;6.778;2023-02-08T16:43:25;3.87;;;2.23;;
10090;SDS011;5084;51.386;6.778;2023-02-08T16:48:43;2.93;;;2.43;;
10090;SDS011;5084;51.386;6.778;2023-02-08T16:51:31;3.30;;;2.53;;
10090;SDS011;5084;51.386;6.778;2023-02-08T16:54:00;2.13;;;1.93;;
10090;SDS011;5084;51.386;6.778;2023-02-08T16:56:27;2.63;;;2.37;;
10090;SDS011;5084;51.386;6.778;2023-02-08T16:58:54;2.87;;;2.23;;
10090;SDS011;5084;51.386;6.778;2023-02-08T17:01:20;2.70;;;2.23;;
10090;SDS011;5084;51.386;6.778;2023-02-08T17:03:48;4.17;;;2.30;;
10090;SDS011;5084;51.386;6.778;2023-02-08T17:06:34;2.80;;;2.50;;
10090;SDS011;5084;51.386;6.778;2023-02-08T17:09:02;2.87;;;2.13;;
10090;SDS011;5084;51.386;6.778;2023-02-08T17:11:28;2.60;;;2.30;;
10090;SDS011;5084;51.386;6.778;2023-02-08T17:13:54;3.80;;;2.10;;
10090;SDS011;5084;51.386;6.778;2023-02-08T17:16:23;2.57;;;2.10;;
10090;SDS011;5084;51.386;6.778;2023-02-08T17:18:49;2.40;;;2.13;;
10090;SDS011;5084;51.386;6.778;2023-02-08T17:21:16;2.87;;;2.30;;
10090;SDS011;5084;51.386;6.778;2023-02-08T17:23:42;2.60;;;2.10;;
10090;SDS011;5084;51.386;6.778;2023-02-08T17:26:18;2.70;;;2.10;;